Augusta, KS

9:11 PM CDT on September 02, 2014 (GMT -0500)
The Highlands | Change Station
CLOSE
Current Station
Personal Weather Station
Location: Andover, KS
Elevation: 1326 ft
Nearby Weather Stations

Elev 1326 ft 37.68 °N, 97.12 °W | Updated 5 seconds ago

Clear
Clear
76.5 °F
Feels Like 78 °F
N
1.2
Wind Variable Wind from SE
Gusts 2.3 mph

Today
High -- | Low -- °F
--% Chance of Precip.
Yesterday
High -- | Low -- °F
Precip. -- in
6:58 AM 7:55 PM
First Quarter, 57% visible
Pressure 29.90 in
Visibility 10.0 miles
Clouds Few 7500 ft
Scattered Clouds 9000 ft
Heat Index 78 °F
Dew Point 70 °F
Humidity 80%
Rainfall 0.00 in
Snow Depth Not available.
UV 0 out of 12
Pollen 10.30 out of 12
Air Quality Not available.
Flu Activity Not available.
METAR KAAO 030154Z AUTO 15004KT 10SM FEW075 SCT090 25/21 A2993 RMK AO2 SLP124 T02500206

More Conditions Fewer Conditions

Pressure 29.90 in
Visibility 10.0 miles
Clouds Few 7500 ft
Scattered Clouds 9000 ft
Heat Index 78 °F
Dew Point 70 °F
Humidity 80%
Rainfall 0.00 in
Snow Depth Not available.
UV 0 out of 12
Pollen 10.30 out of 12
Air Quality Not available.
Flu Activity Not available.
METAR KAAO 030154Z AUTO 15004KT 10SM FEW075 SCT090 25/21 A2993 RMK AO2 SLP124 T02500206

More Conditions Fewer Conditions

10-Day Weather Forecast

Almanac

Astronomy

Sep. 02, 2014 Rise Set
Actual Time 6:58 AM CDT 7:55 PM CDT
Civil Twilight 6:32 AM CDT 8:22 PM CDT
Nautical Twilight 6:00 AM CDT 8:53 PM CDT
Astronomical Twilight 5:27 AM CDT 9:26 PM CDT
Moon 2:36 PM CDT (9/2) 12:06 AM CDT (9/2)
Length of Visible Light 13h 50m
Length of Day
12h 56m
Tomorrow will be 2m 19s shorter.
First Quarter, 57% of the Moon is Illuminated
Today
First Quarter
Sep 8
Full
Sep 15
Last Quarter
Sep 24
New
Oct 1
First Quarter

Today's Extremes

State Highs State Lows

Community

WunderPhotos

Upload Photos

1,749,841 photos uploaded!

Nearby

Snow Depth

Station Depth Elevation
No new snow has been reported.

Earthquake Activity

City Distance Mag. Time & Date
Helena, Oklahoma 112 miles 3.2 3:05 AM CDT
2014-09-02
Medford, Oklahoma 85 miles 3.3 11:58 PM CDT
2014-09-01
Perry, Oklahoma 106 miles 3.1 6:46 AM CDT
2014-09-01
Enid, Oklahoma 92 miles 3.4 11:57 AM CDT
2014-08-31
Minimum magnitude displayed is 2.5.

Coastal Water Temperatures

Place Temperature
No Stations Reporting

Nearby Weather Stations